Time;durP1;ratioP1;P1;durP2;ratioP2;P2;SDS_P1;SDS_P2;PMS_P1;PMS_P2;Temp;Humidity;BMP_temperature;BMP_pressure;BME280_temperature;BME280_humidity;BME280_pressure;Samples;Min_cycle;Max_cycle;Signal;HPM_P1;HPM_P2
2021/04/17 00:02:52;;;;;;;18.55;12.38;;;;;;;;;;6058541;29;20041;-72
2021/04/17 00:05:53;;;;;;;17.90;11.98;;;;;;;;;;6061075;29;20082;-72
2021/04/17 00:08:55;;;;;;;26.83;12.82;;;;;;;;;;6062672;29;20056;-73
2021/04/17 00:11:59;;;;;;;19.38;12.10;;;;;;;;;;6059724;29;20037;-72
2021/04/17 00:15:00;;;;;;;22.48;12.38;;;;;;;;;;6063617;29;20057;-72
2021/04/17 00:18:01;;;;;;;21.75;12.40;;;;;;;;;;6059582;29;20051;-73
2021/04/17 00:21:03;;;;;;;17.55;12.52;;;;;;;;;;6059595;29;20049;-73
2021/04/17 00:24:07;;;;;;;20.15;13.27;;;;;;;;;;6058410;29;20045;-72
2021/04/17 00:27:08;;;;;;;;;;;;;;;;;;6062708;29;20072;-72
2021/04/17 00:30:10;;;;;;;20.13;12.90;;;;;;;;;;6066068;29;19980;-72
2021/04/17 00:33:11;;;;;;;20.48;13.00;;;;;;;;;;6059959;29;20056;-72
2021/04/17 00:36:13;;;;;;;20.20;13.52;;;;;;;;;;6062071;29;20057;-72
2021/04/17 00:39:15;;;;;;;19.33;13.52;;;;;;;;;;6064242;29;20084;-72
2021/04/17 00:42:16;;;;;;;17.48;13.02;;;;;;;;;;6062616;29;20060;-72
2021/04/17 00:45:17;;;;;;;20.25;13.27;;;;;;;;;;6056546;29;20060;-72
2021/04/17 00:48:26;;;;;;;20.00;14.18;;;;;;;;;;6060855;29;20048;-72
2021/04/17 00:51:27;;;;;;;17.77;13.75;;;;;;;;;;6065065;29;20052;-72
2021/04/17 00:54:29;;;;;;;19.42;14.18;;;;;;;;;;6060661;29;20045;-72
2021/04/17 00:57:30;;;;;;;17.10;13.68;;;;;;;;;;6058661;29;20064;-73
2021/04/17 01:00:34;;;;;;;19.40;13.25;;;;;;;;;;6058499;29;20412;-72
2021/04/17 01:03:42;;;;;;;19.20;13.60;;;;;;;;;;6329943;23;20823;-73
2021/04/17 01:06:49;;;;;;;19.58;14.70;;;;;;;;;;6051029;29;20101;-73
2021/04/17 01:09:57;;;;;;;23.48;13.63;;;;;;;;;;6052569;29;20659;-73
2021/04/17 01:12:59;;;;;;;23.77;14.02;;;;;;;;;;6050673;29;20061;-72
2021/04/17 01:16:01;;;;;;;22.38;14.55;;;;;;;;;;6055991;29;20060;-73
2021/04/17 01:19:03;;;;;;;22.00;13.40;;;;;;;;;;6056312;29;20056;-72
2021/04/17 01:22:05;;;;;;;22.73;14.02;;;;;;;;;;6060448;29;20052;-73
2021/04/17 01:25:10;;;;;;;18.95;13.57;;;;;;;;;;6051466;29;20060;-73
2021/04/17 01:28:12;;;;;;;18.13;12.95;;;;;;;;;;6062675;29;20049;-73
2021/04/17 01:31:15;;;;;;;22.83;14.95;;;;;;;;;;6062764;29;20073;-73
2021/04/17 01:34:16;;;;;;;21.38;13.57;;;;;;;;;;6062119;29;20053;-72
2021/04/17 01:37:18;;;;;;;18.52;14.35;;;;;;;;;;6058230;29;20045;-73
2021/04/17 01:40:21;;;;;;;18.88;13.65;;;;;;;;;;6063065;29;20052;-73
2021/04/17 01:43:26;;;;;;;20.30;14.70;;;;;;;;;;6066110;29;20077;-73
2021/04/17 01:46:28;;;;;;;19.83;15.15;;;;;;;;;;6065317;29;20041;-74
2021/04/17 01:49:31;;;;;;;20.42;14.55;;;;;;;;;;6065667;29;20444;-73
2021/04/17 01:52:32;;;;;;;22.67;14.00;;;;;;;;;;6057825;29;20068;-74
2021/04/17 01:55:37;;;;;;;21.05;14.73;;;;;;;;;;6048761;29;20598;-73
2021/04/17 01:58:39;;;;;;;;;;;;;;;;;;6052521;29;20054;-73
2021/04/17 02:01:40;;;;;;;23.75;14.77;;;;;;;;;;6050904;29;19925;-73
2021/04/17 02:04:42;;;;;;;20.88;14.07;;;;;;;;;;6057650;29;20089;-73
2021/04/17 02:07:43;;;;;;;19.20;13.85;;;;;;;;;;6063888;29;20473;-72
2021/04/17 02:10:45;;;;;;;23.88;14.50;;;;;;;;;;6058413;29;20045;-73
2021/04/17 02:13:47;;;;;;;19.63;13.82;;;;;;;;;;6057014;29;20053;-73
2021/04/17 02:16:51;;;;;;;22.73;13.40;;;;;;;;;;6057228;29;20120;-73
2021/04/17 02:19:56;;;;;;;19.15;13.13;;;;;;;;;;6060352;29;20068;-73
2021/04/17 02:22:57;;;;;;;20.30;14.23;;;;;;;;;;6058226;29;20053;-73
2021/04/17 02:26:02;;;;;;;17.98;13.65;;;;;;;;;;6064060;29;20109;-73
2021/04/17 02:29:04;;;;;;;21.13;13.70;;;;;;;;;;6065614;29;20052;-72
2021/04/17 02:32:09;;;;;;;24.13;13.70;;;;;;;;;;6063803;29;20077;-73
2021/04/17 02:35:12;;;;;;;20.00;13.38;;;;;;;;;;6065599;29;20540;-72
2021/04/17 02:38:13;;;;;;;19.55;14.27;;;;;;;;;;6063192;29;20131;-72
2021/04/17 02:41:14;;;;;;;23.73;13.95;;;;;;;;;;6063092;29;20045;-73
2021/04/17 02:44:16;;;;;;;18.80;13.45;;;;;;;;;;6060017;29;20046;-72
2021/04/17 02:47:18;;;;;;;19.77;12.38;;;;;;;;;;6050665;29;20091;-73
2021/04/17 02:50:20;;;;;;;20.33;13.70;;;;;;;;;;6068304;29;20077;-72
2021/04/17 02:53:21;;;;;;;20.73;13.40;;;;;;;;;;6067582;29;20077;-73
2021/04/17 02:56:22;;;;;;;20.33;12.85;;;;;;;;;;6065148;29;20041;-73
2021/04/17 02:59:24;;;;;;;18.48;12.52;;;;;;;;;;6061558;29;20060;-73
2021/04/17 03:02:26;;;;;;;18.27;12.68;;;;;;;;;;6063341;29;20057;-73
2021/04/17 03:05:27;;;;;;;21.55;13.38;;;;;;;;;;6063107;29;20055;-72
2021/04/17 03:08:28;;;;;;;19.40;13.27;;;;;;;;;;6052334;29;20049;-73
2021/04/17 03:11:29;;;;;;;19.88;12.95;;;;;;;;;;6053543;29;20076;-73
2021/04/17 03:14:31;;;;;;;18.65;12.52;;;;;;;;;;6063636;29;20068;-73
2021/04/17 03:17:33;;;;;;;19.92;12.18;;;;;;;;;;6066625;29;20045;-73
2021/04/17 03:20:34;;;;;;;19.33;12.25;;;;;;;;;;6064172;29;20088;-73
2021/04/17 03:23:35;;;;;;;16.88;12.70;;;;;;;;;;6060054;29;20057;-73
2021/04/17 03:26:37;;;;;;;18.63;12.30;;;;;;;;;;6059347;29;20053;-73
2021/04/17 03:29:39;;;;;;;18.90;11.77;;;;;;;;;;6070945;29;20049;-72
2021/04/17 03:32:40;;;;;;;17.98;11.60;;;;;;;;;;6053275;29;20052;-73
2021/04/17 03:35:41;;;;;;;19.85;11.50;;;;;;;;;;6052742;29;20086;-75
2021/04/17 03:38:42;;;;;;;23.17;11.05;;;;;;;;;;6058168;29;20076;-73
2021/04/17 03:41:44;;;;;;;17.38;11.05;;;;;;;;;;6063567;29;20068;-72
2021/04/17 03:44:46;;;;;;;17.85;10.48;;;;;;;;;;6057475;29;20056;-73
2021/04/17 03:47:47;;;;;;;16.75;11.00;;;;;;;;;;6058210;29;20060;-73
2021/04/17 03:50:49;;;;;;;18.63;11.52;;;;;;;;;;6066588;29;20036;-73
2021/04/17 03:53:50;;;;;;;18.90;11.57;;;;;;;;;;6047639;29;20052;-72
2021/04/17 03:56:51;;;;;;;17.70;10.85;;;;;;;;;;6057090;29;20061;-73
2021/04/17 03:59:53;;;;;;;16.52;10.68;;;;;;;;;;6063310;29;20048;-73
2021/04/17 04:02:54;;;;;;;16.85;10.60;;;;;;;;;;6065781;29;20071;-73
2021/04/17 04:05:55;;;;;;;14.82;11.00;;;;;;;;;;6064750;29;20045;-72
2021/04/17 04:08:56;;;;;;;15.98;9.75;;;;;;;;;;6066039;29;20053;-74
2021/04/17 04:11:58;;;;;;;15.55;10.77;;;;;;;;;;6051780;29;20070;-73
2021/04/17 04:15:00;;;;;;;15.43;10.38;;;;;;;;;;6050550;29;20056;-72
2021/04/17 04:18:02;;;;;;;15.73;10.73;;;;;;;;;;6054346;29;20037;-72
2021/04/17 04:21:03;;;;;;;18.15;10.90;;;;;;;;;;6051055;29;20076;-73
2021/04/17 04:24:05;;;;;;;14.95;10.85;;;;;;;;;;6049191;29;20065;-74
2021/04/17 04:27:07;;;;;;;14.82;10.27;;;;;;;;;;6047152;29;20081;-72
2021/04/17 04:30:11;;;;;;;15.82;10.65;;;;;;;;;;6042585;29;20120;-72
2021/04/17 04:33:12;;;;;;;17.63;10.82;;;;;;;;;;6046088;29;20052;-73
2021/04/17 04:36:13;;;;;;;14.48;9.98;;;;;;;;;;6052990;29;20057;-72
2021/04/17 04:39:14;;;;;;;13.77;9.98;;;;;;;;;;6052151;29;20096;-72
2021/04/17 04:42:15;;;;;;;15.70;9.95;;;;;;;;;;6048560;29;20041;-72
2021/04/17 04:45:18;;;;;;;16.35;10.15;;;;;;;;;;6047324;29;20052;-72
2021/04/17 04:48:19;;;;;;;18.73;10.38;;;;;;;;;;6039488;29;20068;-72
2021/04/17 04:51:20;;;;;;;17.67;10.50;;;;;;;;;;6033754;29;20179;-72
2021/04/17 04:54:22;;;;;;;15.80;10.48;;;;;;;;;;6033968;29;23300;-72
2021/04/17 04:57:23;;;;;;;15.60;9.82;;;;;;;;;;6033598;29;20053;-72
2021/04/17 05:00:25;;;;;;;14.75;9.77;;;;;;;;;;6039226;29;20056;-72
2021/04/17 05:03:26;;;;;;;13.88;9.23;;;;;;;;;;6051838;29;20048;-72
2021/04/17 05:06:28;;;;;;;15.10;9.20;;;;;;;;;;6046565;29;20064;-72
2021/04/17 05:09:29;;;;;;;23.35;10.45;;;;;;;;;;6041165;29;20081;-72
2021/04/17 05:12:30;;;;;;;15.55;9.57;;;;;;;;;;6035931;29;20050;-72
2021/04/17 05:15:32;;;;;;;15.68;10.23;;;;;;;;;;6033635;29;20706;-72
2021/04/17 05:18:35;;;;;;;16.63;9.82;;;;;;;;;;6033916;29;20049;-74
2021/04/17 05:21:36;;;;;;;13.95;9.02;;;;;;;;;;6031623;29;20140;-72
2021/04/17 05:24:37;;;;;;;13.63;9.60;;;;;;;;;;6035047;29;20184;-72
2021/04/17 05:27:38;;;;;;;11.60;8.68;;;;;;;;;;6036045;29;20073;-72
2021/04/17 05:30:40;;;;;;;13.07;9.27;;;;;;;;;;6046204;29;20069;-72
2021/04/17 05:33:42;;;;;;;12.32;9.10;;;;;;;;;;6046773;29;20084;-73
2021/04/17 05:36:43;;;;;;;16.25;9.70;;;;;;;;;;6048996;29;20057;-72
2021/04/17 05:39:44;;;;;;;13.65;9.02;;;;;;;;;;6048282;29;20049;-72
2021/04/17 05:42:46;;;;;;;15.52;9.20;;;;;;;;;;6050746;29;20057;-72
2021/04/17 05:45:48;;;;;;;15.35;9.23;;;;;;;;;;6035912;29;20080;-72
2021/04/17 05:48:49;;;;;;;15.43;9.82;;;;;;;;;;6041918;29;20057;-72
2021/04/17 05:51:51;;;;;;;16.95;10.25;;;;;;;;;;6048740;29;20117;-72
2021/04/17 05:54:52;;;;;;;16.35;10.25;;;;;;;;;;6037582;29;20058;-73
2021/04/17 05:57:53;;;;;;;15.73;10.05;;;;;;;;;;6048296;29;20120;-72
2021/04/17 06:00:55;;;;;;;18.08;10.82;;;;;;;;;;6049979;29;20583;-74
2021/04/17 06:03:57;;;;;;;16.58;10.40;;;;;;;;;;6047094;29;20080;-74
2021/04/17 06:06:58;;;;;;;15.95;10.52;;;;;;;;;;6037259;29;20053;-72
2021/04/17 06:09:59;;;;;;;15.45;11.23;;;;;;;;;;6040028;29;20170;-72
2021/04/17 06:13:00;;;;;;;15.45;11.57;;;;;;;;;;6040512;29;20136;-73
2021/04/17 06:16:04;;;;;;;19.95;11.90;;;;;;;;;;6044873;29;20049;-73
2021/04/17 06:19:06;;;;;;;16.63;11.05;;;;;;;;;;6050447;29;20340;-73
2021/04/17 06:22:07;;;;;;;19.52;10.95;;;;;;;;;;6060660;29;20057;-73
2021/04/17 06:25:10;;;;;;;16.67;9.90;;;;;;;;;;6053659;29;20057;-73
2021/04/17 06:28:11;;;;;;;14.23;10.52;;;;;;;;;;6068067;29;20049;-73
2021/04/17 06:31:13;;;;;;;16.88;11.10;;;;;;;;;;6056100;29;20040;-73
2021/04/17 06:34:15;;;;;;;15.90;11.00;;;;;;;;;;6059622;29;20053;-72
2021/04/17 06:37:22;;;;;;;14.40;10.40;;;;;;;;;;6048596;29;20052;-72
2021/04/17 06:40:24;;;;;;;19.13;11.25;;;;;;;;;;6060815;29;20041;-73
2021/04/17 06:43:27;;;;;;;16.60;10.88;;;;;;;;;;6054102;29;20057;-73
2021/04/17 06:46:31;;;;;;;16.88;11.25;;;;;;;;;;6065871;29;20053;-73
2021/04/17 06:49:32;;;;;;;22.05;10.40;;;;;;;;;;6059355;29;20097;-72
2021/04/17 06:52:37;;;;;;;15.73;10.52;;;;;;;;;;6059111;29;20061;-73
2021/04/17 06:55:39;;;;;;;;;;;;;;;;;;6057015;29;20056;-73
2021/04/17 06:58:41;;;;;;;15.73;9.75;;;;;;;;;;6058689;29;19952;-73
2021/04/17 07:01:43;;;;;;;17.33;11.10;;;;;;;;;;6055493;29;20064;-73
2021/04/17 07:04:45;;;;;;;21.15;11.20;;;;;;;;;;6058554;29;20170;-74
2021/04/17 07:07:46;;;;;;;18.98;11.25;;;;;;;;;;6057390;29;20057;-74
2021/04/17 07:10:48;;;;;;;21.00;11.98;;;;;;;;;;6061750;29;20068;-73
2021/04/17 07:14:04;;;;;;;16.20;11.05;;;;;;;;;;6053924;29;20056;-73
2021/04/17 07:17:06;;;;;;;18.25;11.35;;;;;;;;;;6060620;29;20057;-72
2021/04/17 07:20:09;;;;;;;17.17;9.98;;;;;;;;;;6057640;29;20057;-72
2021/04/17 07:23:10;;;;;;;17.20;10.25;;;;;;;;;;6060164;29;20056;-74
2021/04/17 07:26:12;;;;;;;18.33;11.60;;;;;;;;;;6064390;29;20053;-73
2021/04/17 07:29:14;;;;;;;15.48;11.55;;;;;;;;;;6067708;29;20045;-73
2021/04/17 07:32:18;;;;;;;18.38;12.45;;;;;;;;;;6067268;29;20078;-75
2021/04/17 07:35:20;;;;;;;15.82;11.23;;;;;;;;;;6052824;29;20081;-74
2021/04/17 07:38:23;;;;;;;18.75;10.40;;;;;;;;;;6052939;29;20070;-74
2021/04/17 07:41:24;;;;;;;15.80;10.38;;;;;;;;;;6053334;29;20052;-73
2021/04/17 07:44:30;;;;;;;14.68;9.88;;;;;;;;;;6064836;29;20095;-74
2021/04/17 07:47:33;;;;;;;17.27;10.45;;;;;;;;;;6062926;29;20086;-74
2021/04/17 07:50:36;;;;;;;14.40;9.02;;;;;;;;;;6055238;29;20073;-74
2021/04/17 07:53:39;;;;;;;16.52;9.10;;;;;;;;;;6059161;29;20492;-74
2021/04/17 07:56:40;;;;;;;14.93;9.35;;;;;;;;;;6058356;29;20116;-74
2021/04/17 07:59:42;;;;;;;14.18;9.32;;;;;;;;;;6059942;29;20102;-74
2021/04/17 08:02:47;;;;;;;12.88;8.98;;;;;;;;;;6046730;29;20444;-73
2021/04/17 08:05:48;;;;;;;16.65;9.52;;;;;;;;;;6045697;29;20095;-74
2021/04/17 08:08:50;;;;;;;15.60;9.75;;;;;;;;;;6046451;29;20725;-74
2021/04/17 08:11:53;;;;;;;12.27;9.25;;;;;;;;;;6045397;29;20119;-73
2021/04/17 08:14:54;;;;;;;11.95;9.10;;;;;;;;;;6049562;29;20152;-74
2021/04/17 08:17:56;;;;;;;15.63;9.10;;;;;;;;;;6037507;29;21232;-74
2021/04/17 08:20:59;;;;;;;15.52;9.40;;;;;;;;;;6036490;29;20079;-74
2021/04/17 08:24:01;;;;;;;13.73;10.02;;;;;;;;;;6038239;29;20538;-74
2021/04/17 08:27:02;;;;;;;14.10;9.82;;;;;;;;;;6040655;29;20639;-73
2021/04/17 08:30:07;;;;;;;12.57;9.65;;;;;;;;;;6050292;29;20135;-75
2021/04/17 08:33:14;;;;;;;14.30;10.07;;;;;;;;;;6039498;29;20049;-74
2021/04/17 08:36:30;;;;;;;14.73;9.63;;;;;;;;;;6037741;29;20483;-74
2021/04/17 08:39:42;;;;;;;13.82;9.85;;;;;;;;;;6039067;29;20068;-74
2021/04/17 08:42:47;;;;;;;15.10;9.48;;;;;;;;;;6047741;29;20120;-74
2021/04/17 08:46:03;;;;;;;16.77;10.63;;;;;;;;;;6047832;29;20101;-73
2021/04/17 08:49:04;;;;;;;13.57;10.73;;;;;;;;;;6051838;29;20136;-74
2021/04/17 08:52:20;;;;;;;22.30;11.35;;;;;;;;;;6040607;29;20049;-74
2021/04/17 08:55:21;;;;;;;15.25;10.80;;;;;;;;;;6030312;29;20515;-75
2021/04/17 08:58:24;;;;;;;16.10;11.30;;;;;;;;;;6030985;29;20585;-74
2021/04/17 09:01:25;;;;;;;17.02;10.93;;;;;;;;;;6036764;29;20049;-73
2021/04/17 09:04:27;;;;;;;16.65;10.82;;;;;;;;;;6034067;29;20136;-74
2021/04/17 09:07:30;;;;;;;15.85;11.02;;;;;;;;;;6032270;29;20092;-73
2021/04/17 09:10:33;;;;;;;16.50;10.90;;;;;;;;;;6030168;29;20080;-73
2021/04/17 09:13:34;;;;;;;17.75;11.82;;;;;;;;;;6041230;29;20090;-75
2021/04/17 09:16:39;;;;;;;16.25;11.18;;;;;;;;;;6051520;29;20056;-75
2021/04/17 09:19:54;;;;;;;16.50;11.20;;;;;;;;;;6044739;29;20049;-73
2021/04/17 09:22:54;;;;;;;;;;;;;;;;;;6047015;29;20164;-73
2021/04/17 09:25:56;;;;;;;16.67;10.40;;;;;;;;;;6052217;29;20352;-74
2021/04/17 09:28:57;;;;;;;15.15;10.88;;;;;;;;;;6043749;29;20053;-76
2021/04/17 09:31:59;;;;;;;15.40;11.10;;;;;;;;;;6039443;29;20076;-73
2021/04/17 09:35:02;;;;;;;16.17;11.85;;;;;;;;;;6038689;29;20057;-74
2021/04/17 09:38:12;;;;;;;14.37;10.60;;;;;;;;;;6040404;29;20377;-74
2021/04/17 09:41:14;;;;;;;15.43;11.63;;;;;;;;;;6044453;29;20053;-74
2021/04/17 09:44:15;;;;;;;17.23;11.68;;;;;;;;;;6043066;29;20052;-75
2021/04/17 09:47:18;;;;;;;15.73;10.38;;;;;;;;;;6048132;29;20168;-74
2021/04/17 09:50:24;;;;;;;15.70;9.63;;;;;;;;;;6050843;29;20147;-76
2021/04/17 09:53:31;;;;;;;14.50;9.88;;;;;;;;;;6044043;29;20528;-74
2021/04/17 09:56:34;;;;;;;14.65;10.27;;;;;;;;;;6036580;29;20060;-74
2021/04/17 09:59:35;;;;;;;13.95;10.57;;;;;;;;;;6036142;29;20077;-74
2021/04/17 10:02:40;;;;;;;14.52;10.63;;;;;;;;;;6042431;29;20083;-71
2021/04/17 10:05:42;;;;;;;14.50;10.43;;;;;;;;;;6044782;29;20489;-72
2021/04/17 10:08:43;;;;;;;15.38;11.30;;;;;;;;;;6043454;29;20140;-72
2021/04/17 10:11:45;;;;;;;16.02;11.40;;;;;;;;;;6040577;29;20139;-72
2021/04/17 10:14:46;;;;;;;15.80;10.38;;;;;;;;;;6042231;29;20559;-71
2021/04/17 10:17:49;;;;;;;14.82;11.02;;;;;;;;;;6043579;29;20152;-71
2021/04/17 10:20:50;;;;;;;15.60;10.57;;;;;;;;;;6047385;29;20052;-71
2021/04/17 10:24:14;;;;;;;13.65;10.20;;;;;;;;;;6039634;29;20444;-71
2021/04/17 10:27:24;;;;;;;14.60;10.80;;;;;;;;;;6041788;29;20064;-73
2021/04/17 10:30:25;;;;;;;23.60;12.05;;;;;;;;;;6039813;29;20057;-73
2021/04/17 10:33:28;;;;;;;14.60;11.02;;;;;;;;;;6039504;29;20596;-72
2021/04/17 10:36:30;;;;;;;15.98;10.45;;;;;;;;;;6040840;29;20076;-73
2021/04/17 10:39:31;;;;;;;14.38;11.20;;;;;;;;;;6047598;29;20104;-73
2021/04/17 10:42:48;;;;;;;13.55;11.50;;;;;;;;;;6045696;29;20148;-71
2021/04/17 10:45:51;;;;;;;13.65;10.63;;;;;;;;;;6043947;29;20080;-74
2021/04/17 10:48:53;;;;;;;18.25;11.70;;;;;;;;;;6041135;29;20086;-74
2021/04/17 10:51:55;;;;;;;15.15;11.50;;;;;;;;;;6042668;29;20153;-74
2021/04/17 10:54:57;;;;;;;16.00;11.07;;;;;;;;;;6049772;29;20136;-71
2021/04/17 10:57:59;;;;;;;12.95;11.32;;;;;;;;;;6045482;29;20061;-74
2021/04/17 11:01:01;;;;;;;14.07;10.93;;;;;;;;;;6042152;29;20132;-74
2021/04/17 11:04:04;;;;;;;13.32;10.93;;;;;;;;;;6046013;29;20045;-72
2021/04/17 11:07:10;;;;;;;12.15;10.85;;;;;;;;;;6047085;29;20053;-73
2021/04/17 11:10:12;;;;;;;13.40;11.18;;;;;;;;;;6049266;29;20532;-73
2021/04/17 11:13:28;;;;;;;13.38;11.13;;;;;;;;;;6048381;29;20128;-74
2021/04/17 11:16:36;;;;;;;13.70;11.10;;;;;;;;;;6047540;29;20135;-74
2021/04/17 11:19:37;;;;;;;12.70;10.23;;;;;;;;;;6045656;29;20135;-73
2021/04/17 11:22:39;;;;;;;15.13;11.20;;;;;;;;;;6047941;29;20152;-73
2021/04/17 11:25:40;;;;;;;13.05;10.75;;;;;;;;;;6045924;29;20045;-75
2021/04/17 11:28:43;;;;;;;14.63;12.05;;;;;;;;;;6049325;29;20086;-73
2021/04/17 11:31:47;;;;;;;14.80;10.73;;;;;;;;;;6043724;29;20075;-74
2021/04/17 11:34:48;;;;;;;12.98;10.25;;;;;;;;;;6047315;29;20105;-75
2021/04/17 11:37:50;;;;;;;14.77;11.13;;;;;;;;;;6045475;29;20053;-73
2021/04/17 11:40:51;;;;;;;14.25;10.68;;;;;;;;;;6049978;29;20083;-75
2021/04/17 11:43:53;;;;;;;12.45;10.43;;;;;;;;;;6048666;29;20429;-74
2021/04/17 11:46:57;;;;;;;17.95;11.07;;;;;;;;;;6039795;29;20160;-74
2021/04/17 11:49:58;;;;;;;13.18;10.82;;;;;;;;;;6041098;29;20139;-74
2021/04/17 11:53:00;;;;;;;16.52;10.98;;;;;;;;;;6047311;29;20085;-73
2021/04/17 11:56:01;;;;;;;12.07;9.98;;;;;;;;;;6050527;29;20076;-73
2021/04/17 11:59:03;;;;;;;11.68;10.07;;;;;;;;;;6049578;29;20113;-74
2021/04/17 12:02:04;;;;;;;12.60;10.23;;;;;;;;;;6047992;29;20115;-73
2021/04/17 12:05:06;;;;;;;14.48;9.80;;;;;;;;;;6050592;29;20097;-72
2021/04/17 12:08:08;;;;;;;17.03;10.57;;;;;;;;;;6047016;29;20093;-73
2021/04/17 12:11:09;;;;;;;12.35;10.90;;;;;;;;;;6050488;29;20069;-75
2021/04/17 12:14:10;;;;;;;11.82;10.57;;;;;;;;;;6051434;29;20149;-75
2021/04/17 12:17:12;;;;;;;13.18;10.80;;;;;;;;;;6050806;29;20069;-74
2021/04/17 12:20:13;;;;;;;11.43;10.23;;;;;;;;;;6050494;29;20044;-74
2021/04/17 12:23:15;;;;;;;11.32;10.13;;;;;;;;;;6050576;29;20213;-74
2021/04/17 12:26:16;;;;;;;12.10;10.30;;;;;;;;;;6048700;29;20053;-73
2021/04/17 12:29:18;;;;;;;13.10;10.27;;;;;;;;;;6049890;29;20053;-74
2021/04/17 12:32:19;;;;;;;12.65;9.80;;;;;;;;;;6049580;29;20068;-73
2021/04/17 12:35:21;;;;;;;12.20;8.70;;;;;;;;;;6048681;29;20072;-73
2021/04/17 12:38:23;;;;;;;13.13;9.45;;;;;;;;;;6051916;29;21219;-74
2021/04/17 12:41:25;;;;;;;13.00;10.45;;;;;;;;;;6052855;29;20056;-73
2021/04/17 12:44:26;;;;;;;11.57;10.38;;;;;;;;;;6050565;29;20041;-73
2021/04/17 12:47:27;;;;;;;12.07;9.77;;;;;;;;;;6050897;29;20061;-74
2021/04/17 12:50:28;;;;;;;11.80;10.60;;;;;;;;;;6051560;29;20090;-74
2021/04/17 12:53:30;;;;;;;10.73;9.27;;;;;;;;;;6047387;29;20068;-74
2021/04/17 12:56:31;;;;;;;10.57;9.40;;;;;;;;;;6047053;29;20098;-76
2021/04/17 12:59:32;;;;;;;12.05;9.65;;;;;;;;;;6043432;29;20088;-75
2021/04/17 13:02:33;;;;;;;10.95;9.85;;;;;;;;;;6043145;29;20152;-74
2021/04/17 13:05:34;;;;;;;12.07;9.93;;;;;;;;;;6047585;29;20405;-73
2021/04/17 13:08:36;;;;;;;16.20;10.43;;;;;;;;;;6050067;29;20063;-74
2021/04/17 13:11:37;;;;;;;10.70;9.43;;;;;;;;;;6048381;29;20084;-74
2021/04/17 13:14:39;;;;;;;11.15;10.02;;;;;;;;;;6051399;29;20049;-75
2021/04/17 13:17:40;;;;;;;12.82;10.50;;;;;;;;;;6047710;29;20374;-74
2021/04/17 13:20:42;;;;;;;10.85;9.60;;;;;;;;;;6047234;29;20097;-74
2021/04/17 13:23:44;;;;;;;14.63;9.60;;;;;;;;;;6048685;29;20045;-74
2021/04/17 13:26:45;;;;;;;12.30;8.87;;;;;;;;;;6049301;29;20095;-75
2021/04/17 13:29:47;;;;;;;10.75;9.57;;;;;;;;;;6040413;29;20446;-74
2021/04/17 13:32:49;;;;;;;11.40;9.90;;;;;;;;;;6047472;29;20064;-75
2021/04/17 13:35:50;;;;;;;12.32;9.52;;;;;;;;;;6033645;29;20119;-74
2021/04/17 13:38:52;;;;;;;11.32;10.20;;;;;;;;;;6032373;29;20050;-75
2021/04/17 13:41:53;;;;;;;10.88;9.30;;;;;;;;;;6034858;29;20158;-73
2021/04/17 13:44:54;;;;;;;10.98;9.88;;;;;;;;;;6054350;29;20084;-73
2021/04/17 13:47:56;;;;;;;11.63;10.15;;;;;;;;;;6047846;29;20412;-75
2021/04/17 13:50:57;;;;;;;11.25;9.10;;;;;;;;;;6048851;29;20085;-74
2021/04/17 13:53:59;;;;;;;11.77;9.88;;;;;;;;;;6049731;29;20095;-74
2021/04/17 13:57:00;;;;;;;13.18;9.93;;;;;;;;;;6049547;29;20519;-72
2021/04/17 14:00:01;;;;;;;11.73;10.02;;;;;;;;;;6049962;29;20507;-74
2021/04/17 14:03:03;;;;;;;12.55;9.40;;;;;;;;;;6045428;29;20056;-75
2021/04/17 14:06:05;;;;;;;11.68;10.25;;;;;;;;;;6053898;29;20049;-74
2021/04/17 14:09:07;;;;;;;14.93;10.27;;;;;;;;;;6054566;29;20060;-74
2021/04/17 14:12:09;;;;;;;10.07;9.07;;;;;;;;;;6046490;29;20089;-74
2021/04/17 14:15:11;;;;;;;10.25;9.25;;;;;;;;;;6049253;29;20041;-75
2021/04/17 14:18:12;;;;;;;11.18;9.93;;;;;;;;;;6050519;29;20061;-74
2021/04/17 14:21:13;;;;;;;11.52;9.77;;;;;;;;;;6045584;29;20147;-74
2021/04/17 14:24:15;;;;;;;10.68;9.52;;;;;;;;;;6039599;29;20046;-74
2021/04/17 14:27:17;;;;;;;11.87;10.67;;;;;;;;;;6043792;29;20809;-75
2021/04/17 14:30:19;;;;;;;12.25;10.48;;;;;;;;;;6044382;29;20065;-75
2021/04/17 14:33:20;;;;;;;12.90;10.90;;;;;;;;;;6046636;29;20069;-73
2021/04/17 14:36:21;;;;;;;12.48;10.75;;;;;;;;;;6050851;29;20060;-75
2021/04/17 14:39:24;;;;;;;11.88;10.43;;;;;;;;;;6047134;29;20722;-73
2021/04/17 14:42:25;;;;;;;14.73;10.50;;;;;;;;;;6049682;29;20053;-75
2021/04/17 14:45:26;;;;;;;12.25;10.98;;;;;;;;;;6053413;29;20053;-73
2021/04/17 14:48:27;;;;;;;14.18;11.80;;;;;;;;;;6052041;29;20076;-73
2021/04/17 14:51:29;;;;;;;14.68;11.65;;;;;;;;;;6054247;29;20095;-73
2021/04/17 14:54:31;;;;;;;14.90;11.70;;;;;;;;;;6054855;29;20060;-73
2021/04/17 14:57:32;;;;;;;13.38;11.52;;;;;;;;;;6051090;29;20106;-73
2021/04/17 15:00:33;;;;;;;12.60;11.30;;;;;;;;;;6046875;29;20549;-74
2021/04/17 15:03:34;;;;;;;15.88;10.85;;;;;;;;;;6053599;29;20065;-74
2021/04/17 15:06:36;;;;;;;12.40;10.82;;;;;;;;;;6053152;29;20424;-74
2021/04/17 15:09:38;;;;;;;12.60;11.30;;;;;;;;;;6051155;29;20732;-74
2021/04/17 15:12:39;;;;;;;13.75;12.35;;;;;;;;;;6047906;29;20236;-74
2021/04/17 15:15:40;;;;;;;13.88;12.38;;;;;;;;;;6051336;29;20077;-75
2021/04/17 15:18:41;;;;;;;17.35;13.48;;;;;;;;;;6049088;29;20615;-74
2021/04/17 15:21:43;;;;;;;14.45;12.95;;;;;;;;;;6049299;29;20049;-74
2021/04/17 15:24:45;;;;;;;15.90;13.25;;;;;;;;;;6038393;29;20633;-74
2021/04/17 15:27:47;;;;;;;16.13;13.10;;;;;;;;;;6051377;29;20065;-74
2021/04/17 15:30:49;;;;;;;15.88;13.20;;;;;;;;;;6049520;29;20049;-75
2021/04/17 15:33:50;;;;;;;16.02;13.68;;;;;;;;;;6047104;29;20055;-74
2021/04/17 15:36:53;;;;;;;14.82;13.07;;;;;;;;;;6046197;29;20111;-75
2021/04/17 15:39:55;;;;;;;17.10;14.23;;;;;;;;;;6051366;29;20049;-73
2021/04/17 15:42:56;;;;;;;16.48;13.10;;;;;;;;;;6047329;29;20057;-74
2021/04/17 15:45:57;;;;;;;14.88;12.70;;;;;;;;;;6033102;29;20073;-74
2021/04/17 15:48:58;;;;;;;15.93;12.38;;;;;;;;;;6036599;29;20082;-74
2021/04/17 15:52:00;;;;;;;15.85;13.95;;;;;;;;;;6037214;29;20057;-73
2021/04/17 15:55:03;;;;;;;17.98;14.07;;;;;;;;;;6033059;29;20067;-74
2021/04/17 15:58:30;;;;;;;21.33;13.82;;;;;;;;;;6039175;29;20116;-74
2021/04/17 16:15:14;;;;;;;16.05;13.80;;;;;;;;;;6025103;29;20064;-74
2021/04/17 16:18:15;;;;;;;18.17;14.43;;;;;;;;;;6049792;29;20049;-74
2021/04/17 16:21:16;;;;;;;17.08;13.77;;;;;;;;;;6048353;29;20076;-74
2021/04/17 16:24:17;;;;;;;19.92;13.82;;;;;;;;;;6032439;29;20056;-74
2021/04/17 16:27:19;;;;;;;16.38;14.43;;;;;;;;;;6041874;29;20499;-75
2021/04/17 16:30:24;;;;;;;20.85;15.52;;;;;;;;;;6047673;29;20140;-74
2021/04/17 16:33:25;;;;;;;17.33;14.05;;;;;;;;;;6047833;29;20083;-73
2021/04/17 16:36:27;;;;;;;18.92;14.50;;;;;;;;;;6047283;29;20069;-74
2021/04/17 16:39:28;;;;;;;21.05;15.20;;;;;;;;;;6047249;29;20161;-73
2021/04/17 16:42:30;;;;;;;19.35;14.85;;;;;;;;;;6047134;29;20105;-73
2021/04/17 16:45:31;;;;;;;17.23;14.95;;;;;;;;;;6049764;29;20152;-73
2021/04/17 16:48:32;;;;;;;18.55;14.80;;;;;;;;;;6037321;29;20053;-74
2021/04/17 16:51:33;;;;;;;19.17;15.00;;;;;;;;;;6042524;29;20088;-73
2021/04/17 16:54:34;;;;;;;18.20;15.05;;;;;;;;;;6031438;29;20544;-73
2021/04/17 16:57:36;;;;;;;18.25;14.13;;;;;;;;;;6031292;29;20525;-74
2021/04/17 17:00:38;;;;;;;18.38;14.73;;;;;;;;;;6036382;29;20091;-73
2021/04/17 17:03:39;;;;;;;21.98;14.70;;;;;;;;;;6049231;29;20091;-74
2021/04/17 17:06:40;;;;;;;21.80;14.55;;;;;;;;;;6050021;29;20060;-74
2021/04/17 17:09:41;;;;;;;19.10;15.35;;;;;;;;;;6048927;29;20065;-74
2021/04/17 17:12:43;;;;;;;18.77;14.45;;;;;;;;;;6051570;29;20057;-73
2021/04/17 17:15:44;;;;;;;18.73;15.32;;;;;;;;;;6041566;29;20692;-74
2021/04/17 17:18:45;;;;;;;17.60;14.70;;;;;;;;;;6044031;29;20089;-73
2021/04/17 17:21:46;;;;;;;17.58;14.73;;;;;;;;;;6047001;29;20057;-74
2021/04/17 17:24:47;;;;;;;19.20;15.60;;;;;;;;;;6034351;29;20457;-73
2021/04/17 17:27:49;;;;;;;20.45;15.27;;;;;;;;;;6044593;29;20060;-73
2021/04/17 17:30:51;;;;;;;19.45;15.55;;;;;;;;;;6046744;29;20135;-72
2021/04/17 17:33:52;;;;;;;17.17;14.55;;;;;;;;;;6046346;29;20135;-74
2021/04/17 17:36:53;;;;;;;18.65;15.10;;;;;;;;;;6039576;29;20076;-73
2021/04/17 17:39:54;;;;;;;19.02;14.25;;;;;;;;;;6051187;29;20102;-73
2021/04/17 17:42:57;;;;;;;18.83;13.98;;;;;;;;;;6049519;29;20095;-72
2021/04/17 17:45:58;;;;;;;15.73;12.88;;;;;;;;;;6048075;29;20075;-73
2021/04/17 17:48:59;;;;;;;17.10;13.82;;;;;;;;;;6047811;29;20072;-72
2021/04/17 17:52:00;;;;;;;14.50;12.43;;;;;;;;;;6051010;29;20052;-72
2021/04/17 17:55:01;;;;;;;18.67;12.77;;;;;;;;;;6037481;29;20116;-74
2021/04/17 17:58:04;;;;;;;16.88;13.20;;;;;;;;;;6039850;29;20041;-73
2021/04/17 18:01:06;;;;;;;17.27;12.63;;;;;;;;;;6035256;29;20128;-73